Time;durP1;ratioP1;P1;durP2;ratioP2;P2;SDS_P1;SDS_P2;PMS_P1;PMS_P2;Temp;Humidity;BMP_temperature;BMP_pressure;BME280_temperature;BME280_humidity;BME280_pressure;Samples;Min_cycle;Max_cycle;Signal;HPM_P1;HPM_P2
2023/03/16 00:02:10;;;;;;;6.60;1.95;;;;;;;;;;5033340;28;20093;-69
2023/03/16 00:04:36;;;;;;;3.17;1.75;;;;;;;;;;5032992;28;20437;-69
2023/03/16 00:07:04;;;;;;;10.77;1.38;;;;;;;;;;5031789;28;20026;-69
2023/03/16 00:09:32;;;;;;;6.85;1.40;;;;;;;;;;5032614;28;20036;-69
2023/03/16 00:12:02;;;;;;;7.22;1.85;;;;;;;;;;5033124;28;20018;-69
2023/03/16 00:14:29;;;;;;;9.55;1.48;;;;;;;;;;5032976;28;20018;-69
2023/03/16 00:16:55;;;;;;;5.40;1.63;;;;;;;;;;5032978;28;20109;-69
2023/03/16 00:19:23;;;;;;;3.45;1.63;;;;;;;;;;5032743;28;20104;-69
2023/03/16 00:21:50;;;;;;;5.35;1.38;;;;;;;;;;5032909;28;20033;-69
2023/03/16 00:24:17;;;;;;;6.88;1.80;;;;;;;;;;5032752;28;20030;-69
2023/03/16 00:26:46;;;;;;;6.35;1.67;;;;;;;;;;5032863;28;20109;-69
2023/03/16 00:29:12;;;;;;;9.02;1.95;;;;;;;;;;5032791;28;20055;-69
2023/03/16 00:31:42;;;;;;;4.00;1.70;;;;;;;;;;5032817;28;20022;-69
2023/03/16 00:34:09;;;;;;;4.93;1.90;;;;;;;;;;5032501;28;20032;-69
2023/03/16 00:36:37;;;;;;;4.80;1.40;;;;;;;;;;5032500;28;20040;-69
2023/03/16 00:39:05;;;;;;;3.40;1.45;;;;;;;;;;5032685;28;20083;-69
2023/03/16 00:41:31;;;;;;;4.72;1.60;;;;;;;;;;5032591;28;20022;-69
2023/03/16 00:43:57;;;;;;;8.90;2.40;;;;;;;;;;5014667;28;20159;-69
2023/03/16 00:46:25;;;;;;;4.90;1.50;;;;;;;;;;5031956;28;20021;-69
2023/03/16 00:48:51;;;;;;;10.10;2.67;;;;;;;;;;5032609;28;20378;-69
2023/03/16 00:51:17;;;;;;;8.68;1.70;;;;;;;;;;5032177;28;20046;-69
2023/03/16 00:53:45;;;;;;;5.00;1.45;;;;;;;;;;5032150;28;20035;-69
2023/03/16 00:56:11;;;;;;;6.70;1.73;;;;;;;;;;5032305;28;20029;-69
2023/03/16 00:58:39;;;;;;;8.57;3.00;;;;;;;;;;5032281;28;20098;-69
2023/03/16 01:01:07;;;;;;;5.45;1.63;;;;;;;;;;5032158;28;20091;-69
2023/03/16 01:03:33;;;;;;;6.28;1.80;;;;;;;;;;5014577;28;20451;-69
2023/03/16 01:06:08;;;;;;;3.88;1.42;;;;;;;;;;5032242;28;20034;-69
2023/03/16 01:08:35;;;;;;;7.65;1.60;;;;;;;;;;5032217;28;20096;-69
2023/03/16 01:11:03;;;;;;;10.52;1.70;;;;;;;;;;5032278;28;20026;-69
2023/03/16 01:13:28;;;;;;;9.23;1.30;;;;;;;;;;5032159;28;20072;-69
2023/03/16 01:15:54;;;;;;;5.95;2.25;;;;;;;;;;5031958;28;20041;-69
2023/03/16 01:18:21;;;;;;;5.82;1.30;;;;;;;;;;5032261;28;20383;-69
2023/03/16 01:20:49;;;;;;;9.10;1.65;;;;;;;;;;5032156;28;20040;-69
2023/03/16 01:23:16;;;;;;;4.30;1.40;;;;;;;;;;5032055;28;20025;-69
2023/03/16 01:25:42;;;;;;;3.78;1.52;;;;;;;;;;5032171;28;20033;-69
2023/03/16 01:28:08;;;;;;;7.65;1.40;;;;;;;;;;5032120;28;20152;-69
2023/03/16 01:30:34;;;;;;;5.60;1.83;;;;;;;;;;5031862;28;20088;-69
2023/03/16 01:33:00;;;;;;;5.10;1.48;;;;;;;;;;5032105;28;20033;-69
2023/03/16 01:35:25;;;;;;;7.35;1.60;;;;;;;;;;5014241;28;20026;-69
2023/03/16 01:37:51;;;;;;;4.28;1.52;;;;;;;;;;5032042;28;20029;-69
2023/03/16 01:40:16;;;;;;;6.30;1.40;;;;;;;;;;5031947;28;20485;-69
2023/03/16 01:42:58;;;;;;;4.35;1.38;;;;;;;;;;5031971;28;20096;-69
2023/03/16 01:45:54;;;;;;;8.30;1.30;;;;;;;;;;5014095;28;20028;-68
2023/03/16 01:48:23;;;;;;;3.30;1.42;;;;;;;;;;5031872;28;20033;-69
2023/03/16 01:50:51;;;;;;;7.57;1.45;;;;;;;;;;5031744;28;20045;-69
2023/03/16 01:53:17;;;;;;;3.05;1.10;;;;;;;;;;5031581;28;20099;-69
2023/03/16 01:55:43;;;;;;;3.25;1.13;;;;;;;;;;5031819;28;20474;-69
2023/03/16 01:58:09;;;;;;;6.18;1.50;;;;;;;;;;5034595;28;20036;-69
2023/03/16 02:00:35;;;;;;;7.40;1.60;;;;;;;;;;5035291;28;20025;-69
2023/03/16 02:03:25;;;;;;;2.85;1.40;;;;;;;;;;5017824;28;20474;-69
2023/03/16 02:05:56;;;;;;;9.50;1.67;;;;;;;;;;5035600;28;20022;-69
2023/03/16 02:08:23;;;;;;;4.93;1.42;;;;;;;;;;5035535;28;20026;-69
2023/03/16 02:10:53;;;;;;;5.07;1.42;;;;;;;;;;5035429;28;20024;-69
2023/03/16 02:13:22;;;;;;;11.82;2.05;;;;;;;;;;5035327;28;20026;-69
2023/03/16 02:15:49;;;;;;;5.63;1.60;;;;;;;;;;5035011;28;20037;-69
2023/03/16 02:18:15;;;;;;;6.13;1.27;;;;;;;;;;5035362;28;20076;-69
2023/03/16 02:20:55;;;;;;;12.13;1.70;;;;;;;;;;5035206;28;20494;-69
2023/03/16 02:23:23;;;;;;;4.68;1.40;;;;;;;;;;5035244;28;20025;-69
2023/03/16 02:26:06;;;;;;;7.10;1.70;;;;;;;;;;5035036;28;20540;-69
2023/03/16 02:28:47;;;;;;;5.32;1.48;;;;;;;;;;5034864;28;20033;-69
2023/03/16 02:31:15;;;;;;;8.95;1.42;;;;;;;;;;5035068;28;20021;-69
2023/03/16 02:33:43;;;;;;;7.57;1.42;;;;;;;;;;5034811;28;20042;-69
2023/03/16 02:36:10;;;;;;;4.35;1.40;;;;;;;;;;5034872;28;20494;-69
2023/03/16 02:38:35;;;;;;;4.90;1.67;;;;;;;;;;5034838;28;20025;-69
2023/03/16 02:41:11;;;;;;;9.85;1.45;;;;;;;;;;5034890;28;20429;-69
2023/03/16 02:43:40;;;;;;;6.00;1.88;;;;;;;;;;5034667;28;20108;-69
2023/03/16 02:46:07;;;;;;;8.77;2.28;;;;;;;;;;5034812;28;20104;-69
2023/03/16 02:49:06;;;;;;;4.20;1.33;;;;;;;;;;5034582;28;20029;-69
2023/03/16 02:51:31;;;;;;;4.47;1.30;;;;;;;;;;5034513;28;20466;-69
2023/03/16 02:53:56;;;;;;;7.32;2.25;;;;;;;;;;5034405;28;20120;-69
2023/03/16 02:56:22;;;;;;;3.50;1.33;;;;;;;;;;5034547;28;20068;-69
2023/03/16 02:58:47;;;;;;;4.32;1.38;;;;;;;;;;5034313;28;20029;-69
2023/03/16 03:01:13;;;;;;;6.78;1.50;;;;;;;;;;5034497;28;20025;-69
2023/03/16 03:03:39;;;;;;;5.82;1.30;;;;;;;;;;5034428;28;20417;-69
2023/03/16 03:06:04;;;;;;;7.70;1.35;;;;;;;;;;5034440;28;20394;-69
2023/03/16 03:08:31;;;;;;;8.07;1.55;;;;;;;;;;5033787;28;20029;-69
2023/03/16 03:10:57;;;;;;;4.20;1.48;;;;;;;;;;5034388;28;20029;-69
2023/03/16 03:13:23;;;;;;;10.40;2.03;;;;;;;;;;5034057;28;20021;-69
2023/03/16 03:15:48;;;;;;;5.97;1.52;;;;;;;;;;5034089;28;22019;-69
2023/03/16 03:18:14;;;;;;;8.77;1.45;;;;;;;;;;5034145;28;20059;-69
2023/03/16 03:20:39;;;;;;;7.00;1.50;;;;;;;;;;5034126;28;20106;-69
2023/03/16 03:23:05;;;;;;;12.50;1.80;;;;;;;;;;5034057;28;20125;-69
2023/03/16 03:25:33;;;;;;;8.57;1.73;;;;;;;;;;5034068;28;20057;-70
2023/03/16 03:28:00;;;;;;;8.75;1.75;;;;;;;;;;5033762;28;20075;-69
2023/03/16 03:30:27;;;;;;;7.57;2.25;;;;;;;;;;5033924;28;20026;-69
2023/03/16 03:32:53;;;;;;;7.60;1.80;;;;;;;;;;5033962;28;20025;-69
2023/03/16 03:35:20;;;;;;;4.93;1.35;;;;;;;;;;5033891;28;20029;-68
2023/03/16 03:37:45;;;;;;;3.70;1.40;;;;;;;;;;5033730;28;20077;-69
2023/03/16 03:40:15;;;;;;;9.73;1.30;;;;;;;;;;5033705;28;20604;-69
2023/03/16 03:42:41;;;;;;;6.15;1.70;;;;;;;;;;5033450;28;20454;-69
2023/03/16 03:45:11;;;;;;;8.70;1.70;;;;;;;;;;5033632;28;20090;-69
2023/03/16 03:47:37;;;;;;;5.57;1.50;;;;;;;;;;5033669;28;20493;-69
2023/03/16 03:50:02;;;;;;;6.88;1.65;;;;;;;;;;5033412;28;20045;-69
2023/03/16 03:52:28;;;;;;;6.78;1.83;;;;;;;;;;5033495;28;20025;-69
2023/03/16 03:54:53;;;;;;;5.90;1.17;;;;;;;;;;5033426;28;20025;-69
2023/03/16 03:57:19;;;;;;;5.25;1.60;;;;;;;;;;5033184;28;20037;-69
2023/03/16 03:59:44;;;;;;;6.90;2.05;;;;;;;;;;5033492;28;20141;-69
2023/03/16 04:02:10;;;;;;;10.57;1.67;;;;;;;;;;5033346;28;20025;-69
2023/03/16 04:04:36;;;;;;;4.82;1.42;;;;;;;;;;5033114;28;20403;-69
2023/03/16 04:07:02;;;;;;;11.65;1.70;;;;;;;;;;5033229;28;20026;-69
2023/03/16 04:09:28;;;;;;;4.43;1.23;;;;;;;;;;5033221;28;20101;-69
2023/03/16 04:11:56;;;;;;;8.48;1.30;;;;;;;;;;5033007;28;20055;-69
2023/03/16 04:14:22;;;;;;;8.43;1.42;;;;;;;;;;5033064;28;20028;-69
2023/03/16 04:16:47;;;;;;;5.60;1.73;;;;;;;;;;5033245;28;20037;-69
2023/03/16 04:19:13;;;;;;;3.13;1.33;;;;;;;;;;5032492;28;20461;-69
2023/03/16 04:21:38;;;;;;;11.25;2.13;;;;;;;;;;5032772;28;20029;-69
2023/03/16 04:24:04;;;;;;;5.13;1.20;;;;;;;;;;5032684;28;20071;-69
2023/03/16 04:26:31;;;;;;;9.27;1.65;;;;;;;;;;5032734;28;20121;-69
2023/03/16 04:28:57;;;;;;;3.58;1.65;;;;;;;;;;5033001;28;20021;-69
2023/03/16 04:31:22;;;;;;;5.45;1.30;;;;;;;;;;5032877;28;20034;-69
2023/03/16 04:33:49;;;;;;;7.38;1.83;;;;;;;;;;5032837;28;20070;-69
2023/03/16 04:36:15;;;;;;;6.22;1.38;;;;;;;;;;5032574;28;20112;-69
2023/03/16 04:38:40;;;;;;;6.55;1.65;;;;;;;;;;5032476;28;20510;-69
2023/03/16 04:41:06;;;;;;;8.23;1.90;;;;;;;;;;5016274;28;20383;-68
2023/03/16 04:43:33;;;;;;;10.15;1.70;;;;;;;;;;5012831;28;20033;-69
2023/03/16 04:46:02;;;;;;;8.73;1.85;;;;;;;;;;5012733;28;20041;-69
2023/03/16 04:48:29;;;;;;;7.70;1.70;;;;;;;;;;5012688;28;20033;-69
2023/03/16 04:50:54;;;;;;;9.27;1.50;;;;;;;;;;5012713;28;20422;-69
2023/03/16 04:53:20;;;;;;;2.08;1.10;;;;;;;;;;5023240;28;20036;-69
2023/03/16 04:55:46;;;;;;;5.32;1.58;;;;;;;;;;5032421;28;20412;-69
2023/03/16 04:58:12;;;;;;;8.20;1.45;;;;;;;;;;5032460;28;20485;-69
2023/03/16 05:00:40;;;;;;;5.40;1.80;;;;;;;;;;5032216;28;20049;-69
2023/03/16 05:03:06;;;;;;;4.15;1.33;;;;;;;;;;5032358;28;20032;-69
2023/03/16 05:05:31;;;;;;;6.15;1.35;;;;;;;;;;5032443;28;20053;-69
2023/03/16 05:07:57;;;;;;;5.53;1.70;;;;;;;;;;5032065;28;20061;-69
2023/03/16 05:10:22;;;;;;;3.30;1.52;;;;;;;;;;5032228;28;20022;-69
2023/03/16 05:12:48;;;;;;;4.35;1.90;;;;;;;;;;5032216;28;20029;-68
2023/03/16 05:15:13;;;;;;;9.15;1.70;;;;;;;;;;5032289;28;20025;-69
2023/03/16 05:17:40;;;;;;;2.75;1.50;;;;;;;;;;5032338;28;20391;-69
2023/03/16 05:20:10;;;;;;;9.27;1.48;;;;;;;;;;5032136;28;20022;-69
2023/03/16 05:22:36;;;;;;;6.65;1.40;;;;;;;;;;5031780;28;20037;-69
2023/03/16 05:25:03;;;;;;;3.97;1.27;;;;;;;;;;5032236;28;20029;-69
2023/03/16 05:27:29;;;;;;;12.57;1.52;;;;;;;;;;5032171;28;20033;-69
2023/03/16 05:29:54;;;;;;;12.20;2.65;;;;;;;;;;5031710;28;20030;-69
2023/03/16 05:32:20;;;;;;;5.07;1.65;;;;;;;;;;5035054;28;20025;-69
2023/03/16 05:34:45;;;;;;;4.60;1.60;;;;;;;;;;5036066;28;20029;-69
2023/03/16 05:37:11;;;;;;;5.60;1.50;;;;;;;;;;5035747;28;20045;-69
2023/03/16 05:39:37;;;;;;;6.90;1.85;;;;;;;;;;5035986;28;20462;-69
2023/03/16 05:42:04;;;;;;;4.60;1.88;;;;;;;;;;5035728;28;20463;-69
2023/03/16 05:44:30;;;;;;;4.82;1.52;;;;;;;;;;5035756;28;20033;-69
2023/03/16 05:46:56;;;;;;;7.05;1.50;;;;;;;;;;5035935;28;20069;-69
2023/03/16 05:49:22;;;;;;;8.80;1.70;;;;;;;;;;5035828;28;20049;-69
2023/03/16 05:51:49;;;;;;;4.47;2.03;;;;;;;;;;5035343;28;20049;-69
2023/03/16 05:54:14;;;;;;;7.40;1.60;;;;;;;;;;5035443;28;20025;-69
2023/03/16 05:56:40;;;;;;;7.38;2.00;;;;;;;;;;5035707;28;20029;-69
2023/03/16 05:59:05;;;;;;;6.38;1.88;;;;;;;;;;5035761;28;20039;-69
2023/03/16 06:01:32;;;;;;;8.77;1.92;;;;;;;;;;5035460;28;20425;-69
2023/03/16 06:03:58;;;;;;;11.02;2.00;;;;;;;;;;5035439;28;20036;-69
2023/03/16 06:06:23;;;;;;;5.28;1.48;;;;;;;;;;5035207;28;20033;-69
2023/03/16 06:08:49;;;;;;;14.18;2.00;;;;;;;;;;5035497;28;20036;-69
2023/03/16 06:11:15;;;;;;;6.90;1.77;;;;;;;;;;5035074;28;20402;-69
2023/03/16 06:13:41;;;;;;;4.82;1.58;;;;;;;;;;5035333;28;20053;-69
2023/03/16 06:16:07;;;;;;;8.23;1.95;;;;;;;;;;5035123;28;20072;-69
2023/03/16 06:18:33;;;;;;;7.60;1.90;;;;;;;;;;5035110;28;20088;-69
2023/03/16 06:20:58;;;;;;;13.05;2.42;;;;;;;;;;5035073;28;20478;-69
2023/03/16 06:23:24;;;;;;;7.30;1.40;;;;;;;;;;5035307;28;20064;-69
2023/03/16 06:25:53;;;;;;;4.30;1.50;;;;;;;;;;5035121;28;20497;-69
2023/03/16 06:28:19;;;;;;;7.60;1.90;;;;;;;;;;5034828;28;20109;-69
2023/03/16 06:30:44;;;;;;;6.30;1.80;;;;;;;;;;5035006;28;20104;-69
2023/03/16 06:33:09;;;;;;;7.68;1.85;;;;;;;;;;5034943;28;20454;-69
2023/03/16 06:35:35;;;;;;;7.43;3.00;;;;;;;;;;5034748;28;20030;-69
2023/03/16 06:38:00;;;;;;;13.32;3.30;;;;;;;;;;5034788;28;20040;-69
2023/03/16 06:40:26;;;;;;;5.68;2.20;;;;;;;;;;5034701;28;20041;-68
2023/03/16 06:42:52;;;;;;;7.38;2.53;;;;;;;;;;5020101;28;20034;-69
2023/03/16 06:45:20;;;;;;;5.18;2.38;;;;;;;;;;5015260;28;20053;-69
2023/03/16 06:47:45;;;;;;;8.07;2.78;;;;;;;;;;5014991;28;20100;-69
2023/03/16 06:50:11;;;;;;;8.23;1.98;;;;;;;;;;5014590;28;20057;-69
2023/03/16 06:52:37;;;;;;;8.55;2.40;;;;;;;;;;5019899;28;20029;-69
2023/03/16 06:55:02;;;;;;;5.25;1.77;;;;;;;;;;5016963;28;20057;-69
2023/03/16 06:57:28;;;;;;;6.35;1.67;;;;;;;;;;5024071;28;20173;-69
2023/03/16 06:59:53;;;;;;;8.23;2.20;;;;;;;;;;5014615;28;20048;-69
2023/03/16 07:02:21;;;;;;;9.77;2.42;;;;;;;;;;5014602;28;20507;-69
2023/03/16 07:04:46;;;;;;;8.48;2.50;;;;;;;;;;5014339;28;20709;-69
2023/03/16 07:07:12;;;;;;;5.75;1.65;;;;;;;;;;5014364;28;20109;-69
2023/03/16 07:09:37;;;;;;;6.32;2.50;;;;;;;;;;5014687;28;20018;-69
2023/03/16 07:12:03;;;;;;;9.02;2.72;;;;;;;;;;5014553;28;20026;-69
2023/03/16 07:14:29;;;;;;;7.95;2.10;;;;;;;;;;4996910;28;20410;-69
2023/03/16 07:16:55;;;;;;;7.82;2.13;;;;;;;;;;5014038;28;20030;-69
2023/03/16 07:19:21;;;;;;;10.70;3.10;;;;;;;;;;5014189;28;20030;-70
2023/03/16 07:21:47;;;;;;;9.88;2.40;;;;;;;;;;5014506;28;20026;-69
2023/03/16 07:24:14;;;;;;;7.00;2.13;;;;;;;;;;5014209;28;20088;-70
2023/03/16 07:26:40;;;;;;;8.15;1.90;;;;;;;;;;5014074;28;20509;-70
2023/03/16 07:29:05;;;;;;;7.60;1.77;;;;;;;;;;5014236;28;20030;-70
2023/03/16 07:31:33;;;;;;;5.57;1.77;;;;;;;;;;5013994;28;20033;-69
2023/03/16 07:33:58;;;;;;;9.32;2.30;;;;;;;;;;5013906;28;20079;-69
2023/03/16 07:36:24;;;;;;;7.45;2.25;;;;;;;;;;5013789;28;20116;-69
2023/03/16 07:38:50;;;;;;;10.07;1.98;;;;;;;;;;5014067;28;20029;-69
2023/03/16 07:41:16;;;;;;;7.00;1.85;;;;;;;;;;5014035;28;20091;-69
2023/03/16 07:43:43;;;;;;;11.07;1.90;;;;;;;;;;5013776;28;20025;-67
2023/03/16 07:46:12;;;;;;;6.38;2.97;;;;;;;;;;5013819;28;20026;-69
2023/03/16 07:48:43;;;;;;;8.70;2.58;;;;;;;;;;5013651;28;20084;-69
2023/03/16 07:51:10;;;;;;;7.50;2.05;;;;;;;;;;5013596;28;20121;-68
2023/03/16 07:53:36;;;;;;;8.52;2.30;;;;;;;;;;5013548;28;20055;-69
2023/03/16 07:56:02;;;;;;;12.05;6.50;;;;;;;;;;5013539;28;20129;-70
2023/03/16 07:58:28;;;;;;;9.35;3.50;;;;;;;;;;5013487;28;20514;-69
2023/03/16 08:00:58;;;;;;;14.15;5.65;;;;;;;;;;5013796;28;20041;-69
2023/03/16 08:03:28;;;;;;;6.60;1.85;;;;;;;;;;5013392;28;20381;-69
2023/03/16 08:05:54;;;;;;;10.50;1.90;;;;;;;;;;5013333;28;20084;-69
2023/03/16 08:08:21;;;;;;;15.65;2.22;;;;;;;;;;5012862;28;20038;-69
2023/03/16 08:10:51;;;;;;;10.38;2.97;;;;;;;;;;4995896;28;20415;-69
2023/03/16 08:13:17;;;;;;;10.15;2.78;;;;;;;;;;5013477;28;20407;-69
2023/03/16 08:15:46;;;;;;;9.75;2.25;;;;;;;;;;5013254;28;20037;-69
2023/03/16 08:18:11;;;;;;;9.02;2.20;;;;;;;;;;5013106;28;20025;-69
2023/03/16 08:20:36;;;;;;;7.72;2.58;;;;;;;;;;5013122;28;20383;-68
2023/03/16 08:23:02;;;;;;;7.40;2.15;;;;;;;;;;5013177;28;20026;-67
2023/03/16 08:25:27;;;;;;;8.23;2.90;;;;;;;;;;5013046;28;20021;-67
2023/03/16 08:27:54;;;;;;;8.77;3.80;;;;;;;;;;5012809;28;20029;-68
2023/03/16 08:30:21;;;;;;;7.68;2.10;;;;;;;;;;5013165;28;20033;-67
2023/03/16 08:32:46;;;;;;;7.03;1.90;;;;;;;;;;5012929;28;20028;-67
2023/03/16 08:35:14;;;;;;;6.35;1.98;;;;;;;;;;5013018;28;20029;-67
2023/03/16 08:37:40;;;;;;;11.93;3.80;;;;;;;;;;5012926;28;20032;-67
2023/03/16 08:40:09;;;;;;;11.60;2.47;;;;;;;;;;5013040;28;20494;-69
2023/03/16 08:42:35;;;;;;;5.93;2.33;;;;;;;;;;5012905;28;20510;-69
2023/03/16 08:45:08;;;;;;;8.23;2.22;;;;;;;;;;5012536;28;20058;-69
2023/03/16 08:47:39;;;;;;;7.80;2.33;;;;;;;;;;5012937;28;20073;-69
2023/03/16 08:50:06;;;;;;;8.38;2.83;;;;;;;;;;5012730;28;20034;-69
2023/03/16 08:52:33;;;;;;;7.28;2.40;;;;;;;;;;5016669;28;20053;-69
2023/03/16 08:54:59;;;;;;;6.85;2.53;;;;;;;;;;5032855;28;20382;-69
2023/03/16 08:57:25;;;;;;;9.45;2.58;;;;;;;;;;5032378;28;20083;-70
2023/03/16 08:59:50;;;;;;;8.10;2.30;;;;;;;;;;5032353;28;20037;-69
2023/03/16 09:02:16;;;;;;;6.47;2.20;;;;;;;;;;5014819;28;20029;-67
2023/03/16 09:04:41;;;;;;;7.13;2.55;;;;;;;;;;5032379;28;20053;-67
2023/03/16 09:07:07;;;;;;;8.95;3.40;;;;;;;;;;5031581;28;20057;-69
2023/03/16 09:09:34;;;;;;;7.07;2.40;;;;;;;;;;5014548;28;20033;-67
2023/03/16 09:12:00;;;;;;;10.32;2.30;;;;;;;;;;5032195;28;20487;-67
2023/03/16 09:14:26;;;;;;;10.50;2.13;;;;;;;;;;5032024;28;20542;-67
2023/03/16 09:16:51;;;;;;;6.70;2.08;;;;;;;;;;5032126;28;20124;-69
2023/03/16 09:19:18;;;;;;;8.63;1.73;;;;;;;;;;5032293;28;20021;-68
2023/03/16 09:21:44;;;;;;;9.82;2.00;;;;;;;;;;5032218;28;20064;-69
2023/03/16 09:24:10;;;;;;;12.35;2.20;;;;;;;;;;5032196;28;20331;-67
2023/03/16 09:26:36;;;;;;;5.78;1.98;;;;;;;;;;5031892;28;20033;-67
2023/03/16 09:29:03;;;;;;;11.77;2.58;;;;;;;;;;5032132;28;20030;-67
2023/03/16 09:31:28;;;;;;;6.70;1.75;;;;;;;;;;5032026;28;20390;-67
2023/03/16 09:33:54;;;;;;;4.55;2.15;;;;;;;;;;5014178;28;20029;-67
2023/03/16 09:36:20;;;;;;;6.78;1.73;;;;;;;;;;5031848;28;20029;-67
2023/03/16 09:38:45;;;;;;;6.32;1.70;;;;;;;;;;5032228;28;20029;-67
2023/03/16 09:41:29;;;;;;;4.35;1.85;;;;;;;;;;5032043;28;20037;-69
2023/03/16 09:44:16;;;;;;;7.45;2.30;;;;;;;;;;5013776;28;20026;-69
2023/03/16 09:46:48;;;;;;;6.50;2.20;;;;;;;;;;5014425;28;20382;-69
2023/03/16 09:49:20;;;;;;;3.83;1.70;;;;;;;;;;5032004;28;20021;-69
2023/03/16 09:51:58;;;;;;;10.18;1.92;;;;;;;;;;5031463;28;20118;-69
2023/03/16 09:54:41;;;;;;;8.70;2.00;;;;;;;;;;5031705;28;20041;-69
2023/03/16 09:57:26;;;;;;;8.25;2.35;;;;;;;;;;5031789;28;20041;-67
2023/03/16 09:59:52;;;;;;;5.30;1.63;;;;;;;;;;5031800;28;20068;-69
2023/03/16 10:02:45;;;;;;;7.13;1.80;;;;;;;;;;5031921;28;20045;-69
2023/03/16 10:05:13;;;;;;;4.63;1.70;;;;;;;;;;5031871;28;20021;-69
2023/03/16 10:08:14;;;;;;;9.07;2.40;;;;;;;;;;5031596;28;20033;-69
2023/03/16 10:11:10;;;;;;;8.27;1.80;;;;;;;;;;4920723;29;20036;-67
2023/03/16 10:13:54;;;;;;;4.65;1.50;;;;;;;;;;4913326;29;20037;-70
2023/03/16 10:16:37;;;;;;;6.80;2.22;;;;;;;;;;4913700;29;20048;-69
2023/03/16 10:19:31;;;;;;;4.88;1.55;;;;;;;;;;4915854;29;20394;-69
2023/03/16 10:22:01;;;;;;;6.07;1.70;;;;;;;;;;4911479;29;20047;-68
2023/03/16 10:24:52;;;;;;;11.10;1.80;;;;;;;;;;4916737;29;20074;-68
2023/03/16 10:27:23;;;;;;;19.40;2.92;;;;;;;;;;4878622;29;20283;-67
2023/03/16 10:29:48;;;;;;;;;;;;;;;;;;4879224;29;20059;-67
2023/03/16 10:32:16;;;;;;;8.15;1.60;;;;;;;;;;4878991;29;19916;-69
2023/03/16 10:34:51;;;;;;;4.10;1.48;;;;;;;;;;4878787;29;20527;-67
2023/03/16 10:37:17;;;;;;;10.35;1.85;;;;;;;;;;4878954;29;20041;-67
2023/03/16 10:39:43;;;;;;;5.20;1.45;;;;;;;;;;4878747;29;20082;-68
2023/03/16 10:42:20;;;;;;;6.65;1.67;;;;;;;;;;4878635;29;20069;-68
2023/03/16 10:44:46;;;;;;;8.55;1.92;;;;;;;;;;4878975;29;20049;-67
2023/03/16 10:47:26;;;;;;;9.27;1.70;;;;;;;;;;4908083;29;20047;-67
2023/03/16 10:49:52;;;;;;;4.40;1.70;;;;;;;;;;4954383;29;20031;-67
2023/03/16 10:52:41;;;;;;;4.32;1.70;;;;;;;;;;4956298;28;20407;-67
2023/03/16 10:55:16;;;;;;;5.68;2.13;;;;;;;;;;4973478;28;20042;-68
2023/03/16 10:57:47;;;;;;;6.05;2.15;;;;;;;;;;4973187;28;20061;-68
2023/03/16 11:00:20;;;;;;;6.15;1.98;;;;;;;;;;4973571;28;20031;-68
2023/03/16 11:02:50;;;;;;;7.65;1.80;;;;;;;;;;4973433;28;20027;-66
2023/03/16 11:05:19;;;;;;;7.88;1.95;;;;;;;;;;5025875;28;20048;-66
2023/03/16 11:07:59;;;;;;;7.25;1.90;;;;;;;;;;5034204;28;20143;-66
2023/03/16 11:10:25;;;;;;;;;;;;;;;;;;5034844;28;20037;-67
2023/03/16 11:12:51;;;;;;;7.53;1.95;;;;;;;;;;5034431;28;19920;-67
2023/03/16 11:15:17;;;;;;;7.18;1.70;;;;;;;;;;5034442;28;20460;-67
2023/03/16 11:17:52;;;;;;;7.95;2.17;;;;;;;;;;5033972;28;20096;-67
2023/03/16 11:20:29;;;;;;;7.43;2.08;;;;;;;;;;5034508;28;20379;-66
2023/03/16 11:22:55;;;;;;;3.55;1.50;;;;;;;;;;5034502;28;20055;-67
2023/03/16 11:25:29;;;;;;;8.40;1.70;;;;;;;;;;5033882;28;20466;-67
2023/03/16 11:28:11;;;;;;;8.45;1.83;;;;;;;;;;5033869;28;20104;-67
2023/03/16 11:31:21;;;;;;;6.05;1.75;;;;;;;;;;5033715;28;20120;-67
2023/03/16 11:33:48;;;;;;;3.90;1.60;;;;;;;;;;5033601;28;20053;-67
2023/03/16 11:36:26;;;;;;;7.13;1.85;;;;;;;;;;5033715;28;20494;-67
2023/03/16 11:38:58;;;;;;;4.93;1.75;;;;;;;;;;5033799;28;20500;-66
2023/03/16 11:41:46;;;;;;;4.25;1.77;;;;;;;;;;5033778;28;20029;-66
2023/03/16 11:44:22;;;;;;;7.38;1.80;;;;;;;;;;5033811;28;20108;-67
2023/03/16 11:47:40;;;;;;;5.95;1.80;;;;;;;;;;5026926;28;20042;-67
2023/03/16 11:50:29;;;;;;;3.55;1.30;;;;;;;;;;4895801;29;20557;-67
2023/03/16 11:53:02;;;;;;;5.80;1.83;;;;;;;;;;4896116;29;20052;-67
2023/03/16 11:55:54;;;;;;;6.32;1.90;;;;;;;;;;4880209;29;20098;-67
2023/03/16 11:58:50;;;;;;;3.47;1.60;;;;;;;;;;4888744;29;20048;-68
2023/03/16 12:01:26;;;;;;;4.93;2.00;;;;;;;;;;4891695;29;20122;-67
2023/03/16 12:03:57;;;;;;;5.68;1.70;;;;;;;;;;4858693;29;20479;-67
2023/03/16 12:06:47;;;;;;;13.95;2.10;;;;;;;;;;4858674;29;20061;-67
2023/03/16 12:09:36;;;;;;;5.65;1.98;;;;;;;;;;4858459;29;20037;-68
2023/03/16 12:12:12;;;;;;;7.70;1.85;;;;;;;;;;4858416;29;20498;-68
2023/03/16 12:15:13;;;;;;;4.78;1.67;;;;;;;;;;4858596;29;20041;-67
2023/03/16 12:17:40;;;;;;;5.70;1.67;;;;;;;;;;4816365;29;20070;-67
2023/03/16 12:20:20;;;;;;;4.93;1.90;;;;;;;;;;4821742;29;20103;-67
2023/03/16 12:22:51;;;;;;;6.80;1.90;;;;;;;;;;4821673;29;20133;-67
2023/03/16 12:25:21;;;;;;;5.72;1.63;;;;;;;;;;4821666;29;20113;-67
2023/03/16 12:27:49;;;;;;;5.63;1.38;;;;;;;;;;4931091;29;20044;-67
2023/03/16 12:30:37;;;;;;;6.15;1.50;;;;;;;;;;4933345;29;20043;-67
2023/03/16 12:33:39;;;;;;;3.78;1.50;;;;;;;;;;4933168;29;20508;-66
2023/03/16 12:36:35;;;;;;;8.88;1.63;;;;;;;;;;4933267;29;20086;-67
2023/03/16 12:39:06;;;;;;;4.63;1.60;;;;;;;;;;4933229;29;20036;-67
2023/03/16 12:41:40;;;;;;;3.58;1.48;;;;;;;;;;4932401;29;20505;-67
2023/03/16 12:44:11;;;;;;;9.07;1.83;;;;;;;;;;4933136;29;20043;-67
2023/03/16 12:46:54;;;;;;;5.43;1.70;;;;;;;;;;4933318;29;20042;-67
2023/03/16 12:49:23;;;;;;;3.38;1.30;;;;;;;;;;4933300;29;20028;-67
2023/03/16 12:52:01;;;;;;;6.57;1.42;;;;;;;;;;4932534;29;20136;-67
2023/03/16 12:54:27;;;;;;;6.72;1.40;;;;;;;;;;4934710;29;20436;-68
2023/03/16 12:57:03;;;;;;;3.33;1.40;;;;;;;;;;4954340;28;20039;-67
2023/03/16 12:59:43;;;;;;;4.68;1.50;;;;;;;;;;4954358;28;20031;-67
2023/03/16 13:02:24;;;;;;;3.63;1.40;;;;;;;;;;4954135;28;20027;-68
2023/03/16 13:04:57;;;;;;;2.60;1.23;;;;;;;;;;4954349;28;20069;-67
2023/03/16 13:07:26;;;;;;;5.18;1.50;;;;;;;;;;4953856;28;20059;-67
2023/03/16 13:09:56;;;;;;;6.88;1.65;;;;;;;;;;4954075;28;20027;-67
2023/03/16 13:12:35;;;;;;;4.13;1.48;;;;;;;;;;4954299;28;20030;-68
2023/03/16 13:15:15;;;;;;;4.85;1.40;;;;;;;;;;4954628;28;20031;-68
2023/03/16 13:17:41;;;;;;;4.47;1.40;;;;;;;;;;4954361;28;20035;-68
2023/03/16 13:20:12;;;;;;;5.20;1.20;;;;;;;;;;4954118;28;20035;-68
2023/03/16 13:22:51;;;;;;;10.73;2.63;;;;;;;;;;4952563;29;20382;-68
2023/03/16 13:25:29;;;;;;;6.18;1.58;;;;;;;;;;4954213;28;20031;-68
2023/03/16 13:27:58;;;;;;;4.55;1.40;;;;;;;;;;4954255;28;20031;-68
2023/03/16 13:30:28;;;;;;;6.72;1.88;;;;;;;;;;4954227;28;20031;-68
2023/03/16 13:32:58;;;;;;;5.72;1.55;;;;;;;;;;4953833;28;20038;-67
2023/03/16 13:35:29;;;;;;;6.05;1.60;;;;;;;;;;4953709;28;20031;-67
2023/03/16 13:38:04;;;;;;;4.57;1.60;;;;;;;;;;4952704;29;20160;-68
2023/03/16 13:40:30;;;;;;;3.40;1.23;;;;;;;;;;4953958;28;20027;-68
2023/03/16 13:42:57;;;;;;;5.18;1.40;;;;;;;;;;4953869;28;20028;-68
2023/03/16 13:45:30;;;;;;;4.40;1.38;;;;;;;;;;4953755;28;20074;-67
2023/03/16 13:47:57;;;;;;;7.18;1.50;;;;;;;;;;4953693;28;20102;-68
2023/03/16 13:50:23;;;;;;;6.25;1.33;;;;;;;;;;4961192;28;20055;-68
2023/03/16 13:53:00;;;;;;;3.13;1.20;;;;;;;;;;5007949;28;20037;-68
2023/03/16 13:55:29;;;;;;;5.50;1.48;;;;;;;;;;5035514;28;20100;-68
2023/03/16 13:57:55;;;;;;;5.18;1.60;;;;;;;;;;5035050;28;20025;-68
2023/03/16 14:00:24;;;;;;;4.28;1.38;;;;;;;;;;5035638;28;20025;-68
2023/03/16 14:02:55;;;;;;;5.03;1.63;;;;;;;;;;5035766;28;20044;-68
2023/03/16 14:05:28;;;;;;;5.53;1.30;;;;;;;;;;5035568;28;20080;-68
2023/03/16 14:07:55;;;;;;;8.10;1.35;;;;;;;;;;5034801;28;20038;-68
2023/03/16 14:10:31;;;;;;;5.30;1.48;;;;;;;;;;5035299;28;20033;-68
2023/03/16 14:13:05;;;;;;;4.40;1.27;;;;;;;;;;5035592;28;20022;-68
2023/03/16 14:15:35;;;;;;;4.85;1.40;;;;;;;;;;5034986;28;20032;-68
2023/03/16 14:18:20;;;;;;;3.17;1.13;;;;;;;;;;5035378;28;20462;-68
2023/03/16 14:20:46;;;;;;;5.78;1.63;;;;;;;;;;5035134;28;20033;-68
2023/03/16 14:23:23;;;;;;;6.85;1.73;;;;;;;;;;5034994;28;20029;-68
2023/03/16 14:25:49;;;;;;;5.57;1.45;;;;;;;;;;5034962;28;20029;-68
2023/03/16 14:28:27;;;;;;;3.88;1.35;;;;;;;;;;5034955;28;20025;-68
2023/03/16 14:31:00;;;;;;;4.00;1.33;;;;;;;;;;5034996;28;20074;-68
2023/03/16 14:33:28;;;;;;;4.55;1.20;;;;;;;;;;5034686;28;20382;-68
2023/03/16 14:35:56;;;;;;;7.30;1.50;;;;;;;;;;5034715;28;20379;-68
2023/03/16 14:38:35;;;;;;;3.67;1.40;;;;;;;;;;5034751;28;20030;-71
2023/03/16 14:41:07;;;;;;;6.45;1.50;;;;;;;;;;5034722;28;20037;-69
2023/03/16 14:43:37;;;;;;;6.80;1.60;;;;;;;;;;5034573;28;20029;-67
2023/03/16 14:46:07;;;;;;;4.35;1.30;;;;;;;;;;5034856;28;20037;-71
2023/03/16 14:48:34;;;;;;;4.60;1.75;;;;;;;;;;5034498;28;20493;-68
2023/03/16 14:51:01;;;;;;;8.90;1.42;;;;;;;;;;5016691;28;20045;-68
2023/03/16 14:53:30;;;;;;;9.70;1.80;;;;;;;;;;5034271;28;20057;-67
2023/03/16 14:55:57;;;;;;;5.75;2.20;;;;;;;;;;5016623;28;20087;-67
2023/03/16 14:58:24;;;;;;;4.63;1.40;;;;;;;;;;5034487;28;20332;-68
2023/03/16 15:00:52;;;;;;;5.95;1.30;;;;;;;;;;5034589;28;20119;-69